Time;durP1;ratioP1;P1;durP2;ratioP2;P2;SDS_P1;SDS_P2;PMS_P1;PMS_P2;Temp;Humidity;BMP_temperature;BMP_pressure;BME280_temperature;BME280_humidity;BME280_pressure;Samples;Min_cycle;Max_cycle;Signal;HPM_P1;HPM_P2
2022/10/30 00:01:58;;;;;;;;;9.67;9.00;;;;;;;;5060919;28;45244;-71
2022/10/30 00:04:24;;;;;;;;;10.75;7.75;;;;;;;;5060148;28;45279;-72
2022/10/30 00:06:49;;;;;;;;;10.67;9.67;;;;;;;;5050343;28;46399;-71
2022/10/30 00:09:14;;;;;;;;;9.67;7.33;;;;;;;;5039972;28;45604;-70
2022/10/30 00:11:40;;;;;;;;;10.67;10.33;;;;;;;;5040615;28;45336;-71
2022/10/30 00:14:05;;;;;;;;;10.33;9.67;;;;;;;;5040394;28;45310;-72
2022/10/30 00:16:30;;;;;;;;;16.67;11.33;;;;;;;;5039748;28;45224;-72
2022/10/30 00:18:55;;;;;;;;;9.00;8.67;;;;;;;;5060306;28;45295;-70
2022/10/30 00:21:21;;;;;;;;;12.67;9.67;;;;;;;;5058833;28;45318;-71
2022/10/30 00:23:50;;;;;;;;;10.33;9.00;;;;;;;;5057218;28;45425;-71
2022/10/30 00:26:15;;;;;;;;;11.50;9.00;;;;;;;;5041953;28;46804;-71
2022/10/30 00:28:41;;;;;;;;;12.25;8.50;;;;;;;;5039900;28;45529;-72
2022/10/30 00:31:06;;;;;;;;;8.50;8.00;;;;;;;;5053739;28;45392;-71
2022/10/30 00:33:32;;;;;;;;;7.75;5.75;;;;;;;;5060171;28;45379;-72
2022/10/30 00:35:57;;;;;;;;;10.00;8.25;;;;;;;;5058950;28;46500;-71
2022/10/30 00:38:22;;;;;;;;;12.67;8.33;;;;;;;;5059866;28;45395;-71
2022/10/30 00:40:48;;;;;;;;;11.00;8.50;;;;;;;;5058833;28;45400;-71
2022/10/30 00:43:26;;;;;;;;;9.25;8.50;;;;;;;;5060342;28;45438;-71
2022/10/30 00:45:51;;;;;;;;;11.00;10.00;;;;;;;;5059568;28;45344;-71
2022/10/30 00:48:17;;;;;;;;;10.00;9.00;;;;;;;;5058454;28;45485;-71
2022/10/30 00:50:42;;;;;;;;;7.50;7.50;;;;;;;;5060083;28;45399;-71
2022/10/30 00:53:10;;;;;;;;;13.75;9.50;;;;;;;;5060087;28;45301;-70
2022/10/30 00:55:40;;;;;;;;;13.50;9.75;;;;;;;;5059586;28;46289;-71
2022/10/30 00:58:08;;;;;;;;;11.25;8.50;;;;;;;;5038997;28;45642;-71
2022/10/30 01:00:34;;;;;;;;;12.00;8.00;;;;;;;;5042719;28;45330;-71
2022/10/30 01:03:00;;;;;;;;;9.33;6.00;;;;;;;;5057811;28;45454;-71
2022/10/30 01:05:27;;;;;;;;;9.00;9.00;;;;;;;;5059398;28;45350;-71
2022/10/30 01:07:52;;;;;;;;;8.50;8.50;;;;;;;;5058697;28;45440;-71
2022/10/30 01:10:17;;;;;;;;;12.75;8.75;;;;;;;;5059184;28;45331;-71
2022/10/30 01:12:43;;;;;;;;;16.00;9.67;;;;;;;;5058557;28;45291;-71
2022/10/30 01:15:09;;;;;;;;;8.67;7.67;;;;;;;;5058111;28;45537;-71
2022/10/30 01:17:35;;;;;;;;;11.67;10.67;;;;;;;;5058717;28;45268;-71
2022/10/30 01:20:00;;;;;;;;;11.67;9.33;;;;;;;;5059558;28;45426;-71
2022/10/30 01:22:25;;;;;;;;;9.00;9.00;;;;;;;;5059326;28;45486;-71
2022/10/30 01:25:09;;;;;;;;;11.33;8.00;;;;;;;;5056852;28;45621;-71
2022/10/30 01:27:48;;;;;;;;;11.25;8.75;;;;;;;;5059448;28;45232;-71
2022/10/30 01:30:19;;;;;;;;;9.00;8.25;;;;;;;;5045776;28;45206;-71
2022/10/30 01:33:02;;;;;;;;;14.00;8.00;;;;;;;;5039236;28;45413;-71
2022/10/30 01:35:30;;;;;;;;;11.00;7.00;;;;;;;;5038870;28;46289;-71
2022/10/30 01:37:55;;;;;;;;;10.67;8.67;;;;;;;;5053745;28;45882;-71
2022/10/30 01:40:21;;;;;;;;;13.00;9.00;;;;;;;;5059282;28;45447;-71
2022/10/30 01:42:50;;;;;;;;;7.33;7.33;;;;;;;;5059256;28;45224;-71
2022/10/30 01:45:25;;;;;;;;;11.67;10.67;;;;;;;;5057628;28;45511;-71
2022/10/30 01:48:08;;;;;;;;;12.75;11.50;;;;;;;;5048290;28;45654;-71
2022/10/30 01:50:46;;;;;;;;;10.67;9.33;;;;;;;;5043056;28;45270;-71
2022/10/30 01:53:18;;;;;;;;;11.67;11.00;;;;;;;;5059052;28;45256;-71
2022/10/30 01:55:46;;;;;;;;;13.33;12.00;;;;;;;;5057093;28;48455;-71
2022/10/30 01:58:11;;;;;;;;;9.00;7.50;;;;;;;;5058622;28;45518;-71
2022/10/30 02:00:39;;;;;;;;;14.00;10.33;;;;;;;;5053027;28;45501;-71
2022/10/30 02:03:04;;;;;;;;;10.33;8.33;;;;;;;;5057811;28;45383;-71
2022/10/30 02:05:41;;;;;;;;;11.33;7.00;;;;;;;;5058485;28;46157;-71
2022/10/30 02:08:06;;;;;;;;;10.75;10.00;;;;;;;;5057101;28;45465;-71
2022/10/30 02:10:33;;;;;;;;;17.50;7.25;;;;;;;;5057013;28;45610;-70
2022/10/30 02:12:59;;;;;;;;;12.25;9.25;;;;;;;;5058976;28;45236;-71
2022/10/30 02:15:24;;;;;;;;;8.67;8.33;;;;;;;;5057865;28;46150;-71
2022/10/30 02:17:49;;;;;;;;;9.00;8.33;;;;;;;;5043697;28;45426;-71
2022/10/30 02:20:20;;;;;;;;;10.50;9.00;;;;;;;;5037402;28;45335;-70
2022/10/30 02:22:47;;;;;;;;;10.67;9.67;;;;;;;;5038416;28;45254;-70
2022/10/30 02:25:13;;;;;;;;;10.50;10.50;;;;;;;;5038112;28;45952;-71
2022/10/30 02:27:38;;;;;;;;;9.00;8.00;;;;;;;;5050184;28;45311;-70
2022/10/30 02:30:04;;;;;;;;;14.67;11.00;;;;;;;;5058399;28;45237;-70
2022/10/30 02:32:29;;;;;;;;;7.33;3.67;;;;;;;;5058655;28;45287;-70
2022/10/30 02:34:54;;;;;;;;;15.67;10.33;;;;;;;;5057852;28;45571;-71
2022/10/30 02:37:19;;;;;;;;;14.33;12.00;;;;;;;;5052636;28;45307;-71
2022/10/30 02:39:44;;;;;;;;;13.50;10.00;;;;;;;;5052709;28;45397;-71
2022/10/30 02:42:10;;;;;;;;;12.25;9.75;;;;;;;;5058110;28;45399;-71
2022/10/30 02:44:35;;;;;;;;;14.33;10.00;;;;;;;;5057996;28;46667;-71
2022/10/30 02:47:00;;;;;;;;;14.75;12.00;;;;;;;;5045266;28;45253;-71
2022/10/30 02:49:26;;;;;;;;;15.33;10.67;;;;;;;;5038110;28;45449;-70
2022/10/30 02:51:51;;;;;;;;;13.25;12.00;;;;;;;;5038283;28;45428;-70
2022/10/30 02:54:16;;;;;;;;;12.50;10.75;;;;;;;;5037783;28;46571;-70
2022/10/30 02:56:41;;;;;;;;;15.67;12.00;;;;;;;;5036409;28;45347;-70
2022/10/30 02:59:07;;;;;;;;;13.00;9.50;;;;;;;;5040665;28;45421;-71
2022/10/30 03:01:32;;;;;;;;;18.75;12.25;;;;;;;;5055393;28;45287;-70
2022/10/30 03:03:57;;;;;;;;;10.00;8.67;;;;;;;;5057703;28;45580;-70
2022/10/30 03:06:22;;;;;;;;;14.00;12.67;;;;;;;;5057709;28;45481;-70
2022/10/30 03:08:47;;;;;;;;;11.33;10.33;;;;;;;;5056522;28;46271;-70
2022/10/30 03:11:14;;;;;;;;;17.67;13.67;;;;;;;;5047348;28;45813;-71
2022/10/30 03:13:39;;;;;;;;;15.33;10.67;;;;;;;;5037463;28;46802;-71
2022/10/30 03:16:06;;;;;;;;;16.33;14.33;;;;;;;;5037136;28;45472;-71
2022/10/30 03:18:31;;;;;;;;;19.00;15.33;;;;;;;;5037370;28;45378;-71
2022/10/30 03:20:58;;;;;;;;;49.00;39.33;;;;;;;;5053035;28;45860;-71
2022/10/30 03:23:23;;;;;;;;;32.00;27.67;;;;;;;;5037081;28;46434;-71
2022/10/30 03:25:50;;;;;;;;;21.33;19.67;;;;;;;;5037188;28;45266;-71
2022/10/30 03:28:15;;;;;;;;;19.67;16.33;;;;;;;;5039394;28;45324;-71
2022/10/30 03:30:41;;;;;;;;;21.67;21.00;;;;;;;;5057045;28;45236;-71
2022/10/30 03:33:06;;;;;;;;;18.00;16.00;;;;;;;;5057136;28;45546;-71
2022/10/30 03:35:34;;;;;;;;;17.33;14.33;;;;;;;;5057178;28;45296;-71
2022/10/30 03:37:59;;;;;;;;;15.00;14.67;;;;;;;;5057568;28;45303;-71
2022/10/30 03:40:24;;;;;;;;;19.00;15.33;;;;;;;;5057446;28;45375;-71
2022/10/30 03:42:49;;;;;;;;;13.00;12.67;;;;;;;;5048114;28;45526;-71
2022/10/30 03:45:14;;;;;;;;;11.25;11.25;;;;;;;;5036855;28;45488;-70
2022/10/30 03:47:40;;;;;;;;;19.00;13.67;;;;;;;;5036759;28;45360;-71
2022/10/30 03:50:05;;;;;;;;;14.25;11.00;;;;;;;;5036990;28;45709;-70
2022/10/30 03:52:30;;;;;;;;;14.67;12.00;;;;;;;;5056838;28;46487;-71
2022/10/30 03:54:55;;;;;;;;;15.67;14.33;;;;;;;;5056964;28;45771;-70
2022/10/30 03:57:21;;;;;;;;;15.67;13.00;;;;;;;;5056712;28;45485;-71
2022/10/30 03:59:46;;;;;;;;;16.33;15.33;;;;;;;;5048348;28;45289;-71
2022/10/30 04:02:11;;;;;;;;;17.00;11.67;;;;;;;;5057061;28;45317;-71
2022/10/30 04:04:36;;;;;;;;;15.67;11.67;;;;;;;;5055893;28;45607;-71
2022/10/30 04:07:01;;;;;;;;;16.25;12.25;;;;;;;;5057074;28;45453;-71
2022/10/30 04:09:27;;;;;;;;;9.50;8.50;;;;;;;;5056934;28;45731;-71
2022/10/30 04:11:52;;;;;;;;;12.33;11.67;;;;;;;;5055379;28;46568;-71
2022/10/30 04:14:17;;;;;;;;;10.33;10.33;;;;;;;;5056991;28;45464;-71
2022/10/30 04:16:42;;;;;;;;;13.33;11.33;;;;;;;;5044438;28;45383;-71
2022/10/30 04:19:07;;;;;;;;;14.33;13.00;;;;;;;;5037093;28;45494;-70
2022/10/30 04:21:33;;;;;;;;;12.67;12.33;;;;;;;;5036274;28;45875;-70
2022/10/30 04:23:58;;;;;;;;;12.67;12.00;;;;;;;;5036741;28;45285;-70
2022/10/30 04:26:23;;;;;;;;;16.33;13.33;;;;;;;;5052012;28;45237;-70
2022/10/30 04:28:48;;;;;;;;;11.33;11.33;;;;;;;;5056575;28;45263;-70
2022/10/30 04:31:13;;;;;;;;;13.33;12.67;;;;;;;;5056649;28;46193;-70
2022/10/30 04:33:39;;;;;;;;;20.67;14.00;;;;;;;;5036641;28;45239;-70
2022/10/30 04:36:04;;;;;;;;;10.75;10.50;;;;;;;;5036812;28;45226;-70
2022/10/30 04:38:30;;;;;;;;;13.25;9.75;;;;;;;;5036771;28;45449;-71
2022/10/30 04:40:55;;;;;;;;;15.67;12.67;;;;;;;;5054592;28;45828;-71
2022/10/30 04:43:20;;;;;;;;;13.33;11.00;;;;;;;;5059147;28;45378;-71
2022/10/30 04:45:45;;;;;;;;;13.33;11.33;;;;;;;;5050407;28;46956;-71
2022/10/30 04:48:15;;;;;;;;;16.67;11.33;;;;;;;;5046742;28;45283;-71
2022/10/30 04:50:40;;;;;;;;;18.00;14.00;;;;;;;;5039679;28;45550;-70
2022/10/30 04:53:09;;;;;;;;;12.00;11.00;;;;;;;;5059360;28;45382;-70
2022/10/30 04:55:34;;;;;;;;;19.33;13.33;;;;;;;;5055888;28;45476;-70
2022/10/30 04:58:01;;;;;;;;;12.00;12.00;;;;;;;;5059515;28;45256;-70
2022/10/30 05:00:27;;;;;;;;;12.33;11.00;;;;;;;;5044776;28;46578;-70
2022/10/30 05:02:52;;;;;;;;;15.67;14.33;;;;;;;;5039166;28;45482;-70
2022/10/30 05:05:18;;;;;;;;;10.00;8.67;;;;;;;;5058307;28;45326;-70
2022/10/30 05:07:43;;;;;;;;;12.33;11.00;;;;;;;;5060064;28;45341;-70
2022/10/30 05:10:15;;;;;;;;;14.33;12.00;;;;;;;;5059326;28;45436;-70
2022/10/30 05:12:42;;;;;;;;;17.33;12.67;;;;;;;;5059085;28;45464;-70
2022/10/30 05:15:07;;;;;;;;;14.67;13.00;;;;;;;;5059528;28;45432;-70
2022/10/30 05:17:32;;;;;;;;;14.00;12.67;;;;;;;;5058431;28;45423;-70
2022/10/30 05:19:58;;;;;;;;;17.00;14.67;;;;;;;;5059314;28;46245;-70
2022/10/30 05:22:23;;;;;;;;;14.67;13.33;;;;;;;;5043174;28;45508;-70
2022/10/30 05:24:48;;;;;;;;;13.67;12.00;;;;;;;;5043010;28;45484;-70
2022/10/30 05:27:14;;;;;;;;;15.67;12.00;;;;;;;;5059652;28;45368;-70
2022/10/30 05:29:39;;;;;;;;;17.00;14.67;;;;;;;;5058821;28;45306;-70
2022/10/30 05:32:04;;;;;;;;;15.00;11.00;;;;;;;;5058013;28;45375;-70
2022/10/30 05:34:29;;;;;;;;;17.00;15.00;;;;;;;;5059038;28;45257;-70
2022/10/30 05:36:55;;;;;;;;;13.00;11.67;;;;;;;;5050233;28;45470;-70
2022/10/30 05:39:20;;;;;;;;;22.00;16.00;;;;;;;;5040480;28;46606;-70
2022/10/30 05:41:45;;;;;;;;;14.00;12.33;;;;;;;;5038919;28;45398;-70
2022/10/30 05:44:10;;;;;;;;;15.33;14.33;;;;;;;;5038539;28;45318;-70
2022/10/30 05:46:35;;;;;;;;;18.33;15.67;;;;;;;;5038846;28;45383;-70
2022/10/30 05:49:01;;;;;;;;;18.00;14.67;;;;;;;;5038713;28;45518;-70
2022/10/30 05:51:26;;;;;;;;;18.00;14.67;;;;;;;;5055731;28;45363;-70
2022/10/30 05:53:51;;;;;;;;;15.00;13.33;;;;;;;;5058251;28;45235;-70
2022/10/30 05:56:16;;;;;;;;;17.33;16.00;;;;;;;;5057141;28;46062;-70
2022/10/30 05:58:42;;;;;;;;;22.00;15.67;;;;;;;;5058121;28;46100;-70
2022/10/30 06:01:07;;;;;;;;;19.33;14.67;;;;;;;;5058537;28;45302;-70
2022/10/30 06:03:32;;;;;;;;;15.00;14.67;;;;;;;;5057623;28;45303;-70
2022/10/30 06:05:57;;;;;;;;;17.00;12.33;;;;;;;;5056856;28;45525;-70
2022/10/30 06:08:23;;;;;;;;;16.33;15.33;;;;;;;;5058454;28;46282;-70
2022/10/30 06:10:48;;;;;;;;;15.00;12.33;;;;;;;;5054169;28;45303;-70
2022/10/30 06:13:13;;;;;;;;;22.00;15.33;;;;;;;;5038424;28;45233;-71
2022/10/30 06:15:38;;;;;;;;;18.00;16.33;;;;;;;;5038030;28;45209;-71
2022/10/30 06:18:04;;;;;;;;;15.67;14.33;;;;;;;;5037566;28;46546;-70
2022/10/30 06:20:29;;;;;;;;;20.00;17.67;;;;;;;;5038259;28;45318;-69
2022/10/30 06:22:55;;;;;;;;;16.67;15.33;;;;;;;;5037882;28;45246;-70
2022/10/30 06:25:21;;;;;;;;;15.00;12.33;;;;;;;;5038702;28;45345;-71
2022/10/30 06:27:46;;;;;;;;;16.67;14.00;;;;;;;;5056192;28;45629;-71
2022/10/30 06:30:11;;;;;;;;;14.33;12.00;;;;;;;;5057752;28;45361;-71
2022/10/30 06:32:36;;;;;;;;;15.33;12.67;;;;;;;;5057225;28;45690;-71
2022/10/30 06:35:02;;;;;;;;;19.67;16.67;;;;;;;;5056656;28;45394;-71
2022/10/30 06:37:27;;;;;;;;;19.00;15.67;;;;;;;;5055057;28;47754;-71
2022/10/30 06:39:53;;;;;;;;;15.00;13.67;;;;;;;;5057249;28;45379;-71
2022/10/30 06:42:18;;;;;;;;;20.00;17.67;;;;;;;;5057091;28;45405;-71
2022/10/30 06:44:43;;;;;;;;;15.67;13.33;;;;;;;;5051907;28;45318;-71
2022/10/30 06:47:08;;;;;;;;;17.33;15.67;;;;;;;;5054933;28;45446;-71
2022/10/30 06:49:34;;;;;;;;;22.67;18.00;;;;;;;;5053518;28;45758;-71
2022/10/30 06:51:59;;;;;;;;;20.00;18.67;;;;;;;;5057869;28;45537;-71
2022/10/30 06:54:24;;;;;;;;;18.33;15.33;;;;;;;;5057961;28;45417;-71
2022/10/30 06:56:50;;;;;;;;;18.33;16.00;;;;;;;;5057643;28;45461;-71
2022/10/30 06:59:15;;;;;;;;;18.67;15.33;;;;;;;;5056011;28;45442;-72
2022/10/30 07:01:40;;;;;;;;;15.00;13.33;;;;;;;;5053452;28;45299;-72
2022/10/30 07:04:06;;;;;;;;;14.67;13.33;;;;;;;;5037877;28;45314;-71
2022/10/30 07:06:31;;;;;;;;;16.33;16.33;;;;;;;;5036087;28;46503;-71
2022/10/30 07:08:56;;;;;;;;;16.00;15.67;;;;;;;;5037074;28;45294;-71
2022/10/30 07:11:21;;;;;;;;;16.67;15.33;;;;;;;;5036035;28;45420;-71
2022/10/30 07:13:46;;;;;;;;;17.67;14.67;;;;;;;;5044759;28;45282;-71
2022/10/30 07:16:12;;;;;;;;;16.33;13.33;;;;;;;;5056818;28;45362;-71
2022/10/30 07:18:37;;;;;;;;;13.00;13.00;;;;;;;;5056243;28;45220;-71
2022/10/30 07:21:02;;;;;;;;;21.33;15.67;;;;;;;;5056173;28;45378;-73
2022/10/30 07:23:28;;;;;;;;;19.67;14.00;;;;;;;;5056495;28;45427;-73
2022/10/30 07:25:53;;;;;;;;;16.67;15.67;;;;;;;;5056939;28;45466;-72
2022/10/30 07:28:18;;;;;;;;;19.67;19.00;;;;;;;;5042503;28;45281;-74
2022/10/30 07:30:44;;;;;;;;;16.33;12.33;;;;;;;;5036823;28;45330;-71
2022/10/30 07:33:09;;;;;;;;;18.33;17.00;;;;;;;;5036770;28;45261;-71
2022/10/30 07:35:35;;;;;;;;;14.33;13.33;;;;;;;;5036155;28;45783;-71
2022/10/30 07:38:04;;;;;;;;;25.67;22.00;;;;;;;;5047840;28;45578;-71
2022/10/30 07:40:29;;;;;;;;;25.67;16.33;;;;;;;;5056903;28;45417;-70
2022/10/30 07:42:55;;;;;;;;;21.00;16.00;;;;;;;;5056899;28;45394;-70
2022/10/30 07:45:20;;;;;;;;;11.00;9.67;;;;;;;;5053586;28;46525;-71
2022/10/30 07:47:45;;;;;;;;;16.00;12.00;;;;;;;;5056505;28;45299;-71
2022/10/30 07:50:11;;;;;;;;;17.33;17.33;;;;;;;;5055892;28;46716;-73
2022/10/30 07:52:36;;;;;;;;;14.33;14.33;;;;;;;;5056224;28;45204;-71
2022/10/30 07:55:02;;;;;;;;;20.00;18.67;;;;;;;;5055774;28;45515;-71
2022/10/30 07:57:29;;;;;;;;;18.33;17.00;;;;;;;;5056948;28;45425;-71
2022/10/30 07:59:55;;;;;;;;;23.33;21.67;;;;;;;;5056196;28;45383;-71
2022/10/30 08:02:20;;;;;;;;;18.67;17.67;;;;;;;;5057055;28;45434;-70
2022/10/30 08:04:45;;;;;;;;;19.00;15.33;;;;;;;;5055558;28;45517;-70
2022/10/30 08:07:10;;;;;;;;;20.67;17.67;;;;;;;;5055620;28;45484;-69
2022/10/30 08:09:35;;;;;;;;;20.00;18.00;;;;;;;;5056629;28;45280;-70
2022/10/30 08:12:01;;;;;;;;;25.33;21.33;;;;;;;;5055540;28;45393;-68
2022/10/30 08:14:26;;;;;;;;;28.33;21.67;;;;;;;;5056642;28;46651;-69
2022/10/30 08:16:51;;;;;;;;;20.67;19.00;;;;;;;;5056839;28;45761;-70
2022/10/30 08:19:16;;;;;;;;;26.67;19.00;;;;;;;;5060281;28;45471;-69
2022/10/30 08:21:42;;;;;;;;;15.00;15.00;;;;;;;;5060158;28;45390;-74
2022/10/30 08:24:07;;;;;;;;;16.33;14.67;;;;;;;;5051216;28;45395;-72
2022/10/30 08:26:32;;;;;;;;;18.00;14.67;;;;;;;;5059060;28;45454;-67
2022/10/30 08:28:57;;;;;;;;;20.33;15.33;;;;;;;;5058873;28;45489;-75
2022/10/30 08:31:23;;;;;;;;;17.33;13.67;;;;;;;;5053807;28;45585;-73
2022/10/30 08:33:48;;;;;;;;;47.00;33.33;;;;;;;;5057646;28;45585;-71
2022/10/30 08:36:13;;;;;;;;;22.67;19.67;;;;;;;;5058862;28;45381;-70
2022/10/30 08:38:38;;;;;;;;;13.67;11.00;;;;;;;;5059835;28;45582;-69
2022/10/30 08:41:04;;;;;;;;;18.67;13.33;;;;;;;;5058560;28;45452;-71
2022/10/30 08:43:29;;;;;;;;;25.33;18.33;;;;;;;;5059062;28;47184;-73
2022/10/30 08:45:56;;;;;;;;;32.00;25.00;;;;;;;;5055217;28;45474;-69
2022/10/30 08:48:21;;;;;;;;;24.67;21.33;;;;;;;;5058766;28;45437;-69
2022/10/30 08:50:46;;;;;;;;;21.67;19.00;;;;;;;;5059459;28;45206;-68
2022/10/30 08:53:13;;;;;;;;;21.00;19.33;;;;;;;;5058528;28;45472;-69
2022/10/30 08:55:38;;;;;;;;;17.67;15.33;;;;;;;;5057824;28;45664;-67
2022/10/30 08:58:04;;;;;;;;;23.33;18.00;;;;;;;;5056611;28;45250;-73
2022/10/30 09:00:29;;;;;;;;;13.33;13.00;;;;;;;;5058422;28;45474;-75
2022/10/30 09:02:55;;;;;;;;;15.50;11.75;;;;;;;;5057872;28;46152;-72
2022/10/30 09:05:20;;;;;;;;;17.67;17.33;;;;;;;;5058580;28;45211;-74
2022/10/30 09:07:45;;;;;;;;;22.67;17.67;;;;;;;;5058832;28;45481;-75
2022/10/30 09:10:11;;;;;;;;;14.33;14.00;;;;;;;;5054912;28;45168;-74
2022/10/30 09:12:36;;;;;;;;;19.33;13.67;;;;;;;;5040017;28;46352;-71
2022/10/30 09:15:01;;;;;;;;;21.00;15.00;;;;;;;;5059059;28;45410;-74
2022/10/30 09:17:27;;;;;;;;;18.67;16.00;;;;;;;;5041907;28;45345;-74
2022/10/30 09:19:52;;;;;;;;;14.33;13.33;;;;;;;;5055195;28;45414;-76
2022/10/30 09:22:17;;;;;;;;;33.00;21.67;;;;;;;;5058645;28;45309;-83
2022/10/30 09:24:43;;;;;;;;;21.33;17.33;;;;;;;;5057914;28;45336;-76
2022/10/30 09:27:08;;;;;;;;;27.67;26.00;;;;;;;;5058089;28;45582;-72
2022/10/30 09:29:34;;;;;;;;;17.00;15.33;;;;;;;;5057194;28;45465;-78
2022/10/30 09:31:59;;;;;;;;;19.67;14.67;;;;;;;;5058809;28;45648;-72
2022/10/30 09:34:26;;;;;;;;;14.00;13.33;;;;;;;;5058825;28;45379;-70
2022/10/30 09:36:51;;;;;;;;;13.67;12.67;;;;;;;;5058801;28;45368;-70
2022/10/30 09:39:16;;;;;;;;;21.33;19.00;;;;;;;;5055716;28;45272;-73
2022/10/30 09:41:54;;;;;;;;;22.33;16.33;;;;;;;;5048111;28;46459;-70
2022/10/30 09:44:22;;;;;;;;;21.33;16.67;;;;;;;;5055614;28;45411;-73
2022/10/30 09:47:07;;;;;;;;;22.33;17.67;;;;;;;;5061829;28;45731;-74
2022/10/30 09:49:41;;;;;;;;;22.00;18.33;;;;;;;;5058977;28;45343;-75
2022/10/30 09:52:12;;;;;;;;;18.33;14.67;;;;;;;;5047711;28;45542;-72
2022/10/30 09:54:37;;;;;;;;;23.67;19.33;;;;;;;;5049468;28;45572;-68
2022/10/30 09:57:02;;;;;;;;;25.33;16.67;;;;;;;;5038760;28;45311;-70
2022/10/30 09:59:31;;;;;;;;;23.67;18.33;;;;;;;;5044546;28;45205;-70
2022/10/30 10:02:02;;;;;;;;;34.33;30.33;;;;;;;;5058676;28;45511;-72
2022/10/30 10:04:28;;;;;;;;;17.00;14.67;;;;;;;;5048840;28;46337;-76
2022/10/30 10:06:59;;;;;;;;;22.67;18.00;;;;;;;;5058229;28;45421;-70
2022/10/30 10:09:25;;;;;;;;;20.00;18.00;;;;;;;;5058782;28;45228;-70
2022/10/30 10:11:53;;;;;;;;;26.33;19.67;;;;;;;;5058144;28;46631;-78
2022/10/30 10:14:39;;;;;;;;;17.00;16.33;;;;;;;;5055960;28;45277;-74
2022/10/30 10:17:09;;;;;;;;;24.67;21.67;;;;;;;;5056561;28;45351;-71
2022/10/30 10:19:34;;;;;;;;;19.67;14.00;;;;;;;;5049715;28;45495;-76
2022/10/30 10:22:01;;;;;;;;;22.33;22.33;;;;;;;;5064538;28;46611;-77
2022/10/30 10:24:32;;;;;;;;;22.00;15.00;;;;;;;;5069014;28;45307;-75
2022/10/30 10:27:09;;;;;;;;;19.67;19.33;;;;;;;;5071556;27;45422;-79
2022/10/30 10:30:12;;;;;;;;;26.67;25.00;;;;;;;;5063969;28;45315;-76
2022/10/30 10:32:46;;;;;;;;;22.67;17.67;;;;;;;;5032997;28;45576;-78
2022/10/30 10:35:14;;;;;;;;;24.00;18.00;;;;;;;;5024081;28;45882;-77
2022/10/30 10:37:39;;;;;;;;;19.67;18.00;;;;;;;;5051097;28;45574;-81
2022/10/30 10:40:08;;;;;;;;;25.33;23.33;;;;;;;;5032149;28;45461;-80
2022/10/30 10:42:45;;;;;;;;;23.33;21.00;;;;;;;;5027567;28;46480;-75
2022/10/30 10:45:13;;;;;;;;;23.00;18.33;;;;;;;;5029233;28;45626;-77
2022/10/30 10:47:50;;;;;;;;;24.67;18.67;;;;;;;;5028586;28;45537;-79
2022/10/30 10:50:33;;;;;;;;;20.33;15.67;;;;;;;;5032542;28;45533;-78
2022/10/30 10:53:04;;;;;;;;;20.33;16.00;;;;;;;;5034671;28;46607;-73
2022/10/30 10:55:35;;;;;;;;;17.00;14.00;;;;;;;;5051675;28;45416;-71
2022/10/30 10:58:05;;;;;;;;;23.00;18.67;;;;;;;;5055825;28;45430;-73
2022/10/30 11:00:30;;;;;;;;;16.00;15.00;;;;;;;;5038721;28;45390;-79
2022/10/30 11:03:13;;;;;;;;;17.67;15.67;;;;;;;;5038543;28;46059;-74
2022/10/30 11:05:38;;;;;;;;;23.67;17.33;;;;;;;;5057653;28;45203;-74
2022/10/30 11:08:10;;;;;;;;;15.67;12.67;;;;;;;;5052428;28;45410;-74
2022/10/30 11:10:35;;;;;;;;;10.67;10.67;;;;;;;;5037072;28;45434;-74
2022/10/30 11:13:00;;;;;;;;;13.33;13.00;;;;;;;;5053856;28;46038;-74
2022/10/30 11:15:49;;;;;;;;;20.00;17.67;;;;;;;;5055062;28;45806;-74
2022/10/30 11:18:14;;;;;;;;;17.67;13.67;;;;;;;;5036693;28;45383;-74
2022/10/30 11:20:40;;;;;;;;;20.67;15.67;;;;;;;;5047288;28;45312;-73
2022/10/30 11:23:25;;;;;;;;;17.33;13.33;;;;;;;;5047863;28;46723;-73
2022/10/30 11:25:50;;;;;;;;;12.67;11.67;;;;;;;;5040159;28;45546;-73
2022/10/30 11:28:30;;;;;;;;;15.00;13.67;;;;;;;;5047090;28;45586;-73
2022/10/30 11:31:15;;;;;;;;;14.00;12.67;;;;;;;;5054026;28;45532;-74
2022/10/30 11:33:40;;;;;;;;;13.33;11.33;;;;;;;;5046904;28;45540;-73
2022/10/30 11:36:09;;;;;;;;;23.67;19.33;;;;;;;;5037963;28;45460;-72
2022/10/30 11:38:34;;;;;;;;;17.67;17.67;;;;;;;;5048938;28;45340;-74
2022/10/30 11:41:00;;;;;;;;;14.33;12.67;;;;;;;;5043886;28;45404;-70
2022/10/30 11:43:27;;;;;;;;;13.67;11.67;;;;;;;;5046584;28;45671;-71
2022/10/30 11:45:53;;;;;;;;;14.00;11.67;;;;;;;;5055882;28;45358;-79
2022/10/30 11:48:29;;;;;;;;;18.33;15.00;;;;;;;;5051895;28;45365;-80
2022/10/30 11:50:59;;;;;;;;;10.67;10.67;;;;;;;;5054018;28;45346;-77
2022/10/30 11:53:29;;;;;;;;;18.33;12.00;;;;;;;;5050231;28;46404;-76
2022/10/30 11:55:55;;;;;;;;;19.00;16.00;;;;;;;;5048210;28;45386;-71
2022/10/30 11:58:23;;;;;;;;;17.33;14.00;;;;;;;;5051608;28;45329;-73
2022/10/30 12:00:58;;;;;;;;;16.67;14.00;;;;;;;;5056398;28;45477;-76
2022/10/30 12:03:27;;;;;;;;;16.33;12.33;;;;;;;;5040045;28;46657;-79
2022/10/30 12:06:05;;;;;;;;;13.67;11.00;;;;;;;;5055024;28;45475;-81
2022/10/30 12:08:30;;;;;;;;;12.00;11.00;;;;;;;;5060532;28;45486;-78
2022/10/30 12:10:57;;;;;;;;;12.00;11.67;;;;;;;;5060460;28;45469;-72
2022/10/30 12:13:23;;;;;;;;;13.67;12.67;;;;;;;;5056609;28;46573;-69
2022/10/30 12:15:50;;;;;;;;;16.67;10.67;;;;;;;;5042352;28;45879;-67
2022/10/30 12:18:21;;;;;;;;;12.00;11.33;;;;;;;;5045020;28;45245;-72
2022/10/30 12:20:48;;;;;;;;;20.33;15.67;;;;;;;;5048612;28;45399;-70
2022/10/30 12:23:24;;;;;;;;;14.67;12.33;;;;;;;;5047155;28;45489;-68
2022/10/30 12:26:09;;;;;;;;;12.67;10.00;;;;;;;;5060010;28;45472;-66
2022/10/30 12:28:35;;;;;;;;;10.00;8.67;;;;;;;;5060389;28;45302;-71
2022/10/30 12:31:09;;;;;;;;;8.00;6.00;;;;;;;;5053845;28;45458;-72
2022/10/30 12:33:41;;;;;;;;;7.00;6.00;;;;;;;;5042567;28;46673;-70
2022/10/30 12:36:12;;;;;;;;;7.67;6.00;;;;;;;;5052186;28;45529;-70
2022/10/30 12:38:37;;;;;;;;;14.00;12.67;;;;;;;;5054324;28;45379;-71
2022/10/30 12:41:12;;;;;;;;;3.50;3.50;;;;;;;;5053902;28;45492;-69
2022/10/30 12:43:39;;;;;;;;;9.00;6.00;;;;;;;;5054807;28;45516;-76
2022/10/30 12:46:21;;;;;;;;;6.50;4.00;;;;;;;;5056298;28;45608;-72
2022/10/30 12:48:49;;;;;;;;;5.33;4.33;;;;;;;;5057014;28;45474;-69
2022/10/30 12:51:26;;;;;;;;;1.00;1.00;;;;;;;;5055505;28;45580;-68
2022/10/30 12:53:57;;;;;;;;;8.00;5.00;;;;;;;;5058919;28;45394;-65
2022/10/30 12:56:42;;;;;;;;;6.25;3.50;;;;;;;;5057820;28;45637;-69
2022/10/30 12:59:25;;;;;;;;;3.00;3.00;;;;;;;;5058790;28;45461;-67
2022/10/30 13:01:54;;;;;;;;;2.00;2.00;;;;;;;;5062436;28;45791;-67
2022/10/30 13:04:28;;;;;;;;;5.75;4.00;;;;;;;;5076014;27;45429;-68
2022/10/30 13:06:58;;;;;;;;;7.50;3.75;;;;;;;;5057440;28;45455;-67
2022/10/30 13:09:29;;;;;;;;;2.00;2.00;;;;;;;;5057046;28;45546;-67
2022/10/30 13:12:09;;;;;;;;;1.75;1.00;;;;;;;;5043003;28;45496;-67
2022/10/30 13:14:40;;;;;;;;;2.50;1.50;;;;;;;;5046775;28;46217;-65
2022/10/30 13:17:10;;;;;;;;;3.00;1.00;;;;;;;;5051951;28;45486;-66
2022/10/30 13:19:35;;;;;;;;;2.50;2.00;;;;;;;;5058049;28;45345;-69
2022/10/30 13:22:18;;;;;;;;;2.00;1.00;;;;;;;;5042556;28;46420;-73
2022/10/30 13:24:49;;;;;;;;;1.00;1.00;;;;;;;;5040720;28;45697;-66
2022/10/30 13:27:21;;;;;;;;;4.00;2.50;;;;;;;;5048465;28;45383;-63
2022/10/30 13:29:49;;;;;;;;;3.50;2.25;;;;;;;;5053600;28;45492;-67
2022/10/30 13:32:29;;;;;;;;;6.75;3.00;;;;;;;;5051395;28;45511;-65
2022/10/30 13:35:00;;;;;;;;;2.00;2.00;;;;;;;;5054174;28;45334;-73
2022/10/30 13:37:40;;;;;;;;;2.00;1.50;;;;;;;;5050423;28;45461;-71
2022/10/30 13:40:05;;;;;;;;;1.50;1.25;;;;;;;;5051144;28;45208;-74
2022/10/30 13:42:33;;;;;;;;;0.75;0.00;;;;;;;;5055426;28;45281;-73
2022/10/30 13:45:18;;;;;;;;;2.50;0.00;;;;;;;;5049036;28;45551;-69
2022/10/30 13:47:53;;;;;;;;;5.25;5.25;;;;;;;;5049031;28;45516;-66
2022/10/30 13:50:36;;;;;;;;;1.50;1.50;;;;;;;;5053991;28;45434;-67
2022/10/30 13:53:04;;;;;;;;;1.50;1.00;;;;;;;;5054960;28;45897;-69
2022/10/30 13:55:31;;;;;;;;;1.00;1.00;;;;;;;;5056279;28;46151;-71
2022/10/30 13:58:15;;;;;;;;;1.00;0.00;;;;;;;;5053557;28;45445;-70
2022/10/30 14:01:03;;;;;;;;;0.50;0.00;;;;;;;;5047393;28;45556;-72
2022/10/30 14:03:47;;;;;;;;;2.75;2.00;;;;;;;;5045709;28;45500;-69
2022/10/30 14:06:36;;;;;;;;;1.00;1.00;;;;;;;;5051094;28;45537;-71
2022/10/30 14:09:17;;;;;;;;;15.00;15.00;;;;;;;;4994304;28;45991;-70
2022/10/30 14:11:43;;;;;;;;;0.50;0.00;;;;;;;;4989422;28;45449;-75
2022/10/30 14:14:27;;;;;;;;;1.50;0.75;;;;;;;;4987988;28;45685;-70
2022/10/30 14:17:12;;;;;;;;;2.00;0.00;;;;;;;;4989570;28;46239;-70
2022/10/30 14:19:56;;;;;;;;;7.00;5.50;;;;;;;;4994134;28;45564;-69
2022/10/30 14:22:22;;;;;;;;;1.00;0.00;;;;;;;;4988738;28;45537;-70
2022/10/30 14:24:48;;;;;;;;;1.00;0.00;;;;;;;;4993554;28;45457;-69
2022/10/30 14:27:18;;;;;;;;;0.00;0.00;;;;;;;;4994995;28;45465;-69
2022/10/30 14:29:46;;;;;;;;;1.00;0.00;;;;;;;;4994846;28;45433;-69